createdAt,value
2023-04-21T00:01:26.186Z,91.35
2023-04-21T00:03:52.804Z,91.80
2023-04-21T00:06:22.683Z,91.84
2023-04-21T00:08:50.393Z,91.54
2023-04-21T00:11:17.207Z,91.45
2023-04-21T00:13:43.789Z,92.17
2023-04-21T00:16:10.416Z,91.29
2023-04-21T00:18:37.031Z,90.70
2023-04-21T00:21:03.541Z,90.97
2023-04-21T00:23:29.949Z,90.76
2023-04-21T00:25:56.529Z,90.98
2023-04-21T00:28:23.935Z,91.08
2023-04-21T00:30:50.399Z,91.19
2023-04-21T00:33:16.841Z,90.89
2023-04-21T00:35:43.277Z,90.49
2023-04-21T00:38:09.719Z,90.95
2023-04-21T00:40:36.138Z,90.64
2023-04-21T00:43:07.573Z,91.21
2023-04-21T00:45:34.109Z,91.60
2023-04-21T00:48:03.593Z,91.62
2023-04-21T00:50:30.114Z,90.62
2023-04-21T00:52:57.342Z,92.04
2023-04-21T00:55:24.636Z,91.50
2023-04-21T00:57:52.334Z,91.71
2023-04-21T01:00:19.009Z,92.05
2023-04-21T01:02:45.715Z,92.15
2023-04-21T01:05:16.366Z,92.44
2023-04-21T01:07:42.869Z,91.23
2023-04-21T01:10:09.575Z,91.59
2023-04-21T01:12:45.876Z,92.09
2023-04-21T01:15:14.289Z,91.80
2023-04-21T01:17:41.674Z,91.85
2023-04-21T01:20:11.369Z,91.88
2023-04-21T01:22:38.655Z,92.46
2023-04-21T01:25:05.837Z,92.37
2023-04-21T01:27:32.261Z,91.67
2023-04-21T01:29:59.421Z,91.59
2023-04-21T01:32:29.512Z,91.43
2023-04-21T01:34:57.731Z,90.13
2023-04-21T01:37:27.678Z,89.78
2023-04-21T01:39:56.282Z,89.87
2023-04-21T01:42:25.096Z,89.39
2023-04-21T01:44:53.667Z,89.15
2023-04-21T01:47:20.599Z,89.39
2023-04-21T01:49:47.677Z,89.30
2023-04-21T01:52:14.137Z,88.83
2023-04-21T01:54:40.578Z,88.42
2023-04-21T01:57:07.400Z,89.32
2023-04-21T01:59:33.902Z,88.35
2023-04-21T02:02:02.155Z,88.53
2023-04-21T02:04:28.730Z,88.33
2023-04-21T02:06:55.376Z,88.07
2023-04-21T02:09:22.037Z,88.64
2023-04-21T02:11:48.599Z,87.68
2023-04-21T02:14:16.726Z,86.66
2023-04-21T02:16:43.271Z,86.75
2023-04-21T02:19:09.799Z,86.20
2023-04-21T02:21:36.245Z,85.72
2023-04-21T02:24:02.735Z,85.40
2023-04-21T02:26:29.147Z,85.05
2023-04-21T02:28:55.549Z,84.22
2023-04-21T02:31:21.980Z,84.27
2023-04-21T02:33:48.494Z,84.50
2023-04-21T02:36:15.005Z,84.64
2023-04-21T02:38:41.409Z,84.33
2023-04-21T02:41:09.827Z,83.79
2023-04-21T02:43:36.250Z,83.45
2023-04-21T02:46:07.474Z,84.44
2023-04-21T02:48:35.325Z,84.09
2023-04-21T02:51:01.763Z,84.09
2023-04-21T02:53:28.222Z,83.90
2023-04-21T02:55:54.633Z,83.77
2023-04-21T02:58:21.078Z,83.54
2023-04-21T03:00:47.622Z,85.40
2023-04-21T03:03:15.924Z,85.69
2023-04-21T03:05:42.570Z,86.27
2023-04-21T03:08:09.011Z,87.09
2023-04-21T03:10:37.277Z,86.98
2023-04-21T03:13:03.880Z,88.48
2023-04-21T03:15:31.822Z,88.73
2023-04-21T03:18:00.470Z,88.40
2023-04-21T03:20:26.924Z,88.82
2023-04-21T03:22:54.238Z,88.70
2023-04-21T03:25:20.718Z,88.46
2023-04-21T03:27:47.153Z,87.95
2023-04-21T03:30:13.561Z,88.25
2023-04-21T03:32:40.050Z,88.50
2023-04-21T03:35:06.546Z,88.60
2023-04-21T03:37:33.959Z,89.34
2023-04-21T03:40:01.052Z,89.54
2023-04-21T03:42:27.758Z,89.96
2023-04-21T03:44:56.430Z,90.08
2023-04-21T03:47:22.913Z,90.51
2023-04-21T03:49:49.366Z,90.78
2023-04-21T03:52:15.773Z,91.18
2023-04-21T03:54:42.167Z,91.33
2023-04-21T03:57:08.569Z,91.67
2023-04-21T03:59:34.974Z,91.69
2023-04-21T04:02:01.469Z,91.44
2023-04-21T04:04:28.082Z,90.79
2023-04-21T04:06:54.750Z,91.21
2023-04-21T04:09:21.313Z,92.31
2023-04-21T04:11:47.822Z,90.66
2023-04-21T04:14:14.309Z,90.90
2023-04-21T04:16:41.469Z,91.19
2023-04-21T04:19:08.393Z,91.62
2023-04-21T04:21:34.854Z,91.00
2023-04-21T04:24:02.367Z,91.56
2023-04-21T04:26:29.360Z,91.47
2023-04-21T04:28:56.477Z,91.58
2023-04-21T04:31:25.471Z,92.13
2023-04-21T04:33:54.922Z,93.13
2023-04-21T04:36:22.460Z,92.47
2023-04-21T04:38:48.867Z,92.73
2023-04-21T04:41:16.655Z,92.26
2023-04-21T04:43:43.932Z,92.20
2023-04-21T04:46:13.043Z,91.53
2023-04-21T04:48:39.861Z,92.13
2023-04-21T04:51:06.254Z,91.93
2023-04-21T04:53:32.875Z,92.60
2023-04-21T04:55:59.481Z,93.24
2023-04-21T04:58:26.015Z,93.40
2023-04-21T05:00:52.448Z,92.40
2023-04-21T05:03:18.962Z,91.79
2023-04-21T05:05:46.290Z,91.23
2023-04-21T05:08:13.154Z,89.38
2023-04-21T05:10:39.837Z,88.78
2023-04-21T05:13:06.751Z,87.51
2023-04-21T05:15:33.194Z,86.78
2023-04-21T05:17:59.647Z,85.43
2023-04-21T05:20:26.109Z,83.87
2023-04-21T05:22:52.501Z,82.43
2023-04-21T05:25:18.918Z,80.40
2023-04-21T05:27:45.541Z,78.47
2023-04-21T05:30:11.939Z,77.50
2023-04-21T05:32:38.509Z,76.97
2023-04-21T05:35:05.308Z,75.15
2023-04-21T05:37:31.725Z,74.17
2023-04-21T05:39:58.207Z,72.06
2023-04-21T05:42:24.626Z,70.73
2023-04-21T05:44:51.133Z,70.21
2023-04-21T05:47:17.536Z,70.79
2023-04-21T05:49:50.224Z,70.31
2023-04-21T05:52:17.669Z,69.91
2023-04-21T05:54:44.272Z,68.65
2023-04-21T05:57:10.824Z,68.10
2023-04-21T05:59:37.234Z,67.50
2023-04-21T06:02:04.021Z,67.11
2023-04-21T06:04:30.966Z,66.50
2023-04-21T06:06:57.546Z,66.03
2023-04-21T06:09:23.943Z,65.24
2023-04-21T06:11:50.751Z,65.41
2023-04-21T06:14:17.478Z,64.15
2023-04-21T06:16:44.242Z,63.93
2023-04-21T06:19:10.750Z,64.63
2023-04-21T06:21:37.174Z,63.40
2023-04-21T06:24:03.722Z,62.61
2023-04-21T06:26:30.305Z,62.48
2023-04-21T06:28:56.718Z,62.30
2023-04-21T06:31:23.177Z,62.08
2023-04-21T06:33:49.587Z,61.38
2023-04-21T06:36:17.822Z,61.22
2023-04-21T06:38:44.602Z,60.06
2023-04-21T06:41:11.041Z,58.93
2023-04-21T06:43:37.837Z,58.80
2023-04-21T06:46:04.242Z,58.34
2023-04-21T06:48:30.973Z,59.22
2023-04-21T06:50:57.413Z,58.25
2023-04-21T06:53:23.840Z,58.92
2023-04-21T06:55:50.303Z,58.08
2023-04-21T06:58:17.954Z,56.83
2023-04-21T07:00:45.602Z,55.66
2023-04-21T07:03:12.785Z,56.24
2023-04-21T07:05:39.302Z,56.08
2023-04-21T07:08:05.762Z,56.01
2023-04-21T07:10:32.215Z,54.62
2023-04-21T07:12:58.726Z,54.83
2023-04-21T07:15:25.151Z,55.16
2023-04-21T07:17:51.919Z,54.50
2023-04-21T07:20:18.923Z,54.99
2023-04-21T07:22:45.434Z,54.23
2023-04-21T07:25:12.464Z,53.56
2023-04-21T07:27:38.954Z,53.45
2023-04-21T07:30:06.507Z,52.83
2023-04-21T07:32:33.782Z,53.51
2023-04-21T07:35:01.861Z,52.99
2023-04-21T07:37:28.424Z,53.58
2023-04-21T07:39:54.832Z,51.74
2023-04-21T07:42:21.275Z,51.77
2023-04-21T07:44:48.833Z,51.79
2023-04-21T07:47:15.436Z,51.62
2023-04-21T07:49:41.913Z,51.00
2023-04-21T07:52:08.759Z,51.32
2023-04-21T07:54:35.289Z,50.31
2023-04-21T07:57:02.592Z,50.26
2023-04-21T07:59:29.113Z,50.37
2023-04-21T08:01:55.617Z,49.61
2023-04-21T08:04:22.353Z,49.67
2023-04-21T08:06:49.062Z,49.92
2023-04-21T08:09:15.693Z,48.92
2023-04-21T08:11:42.105Z,49.66
2023-04-21T08:14:11.753Z,49.43
2023-04-21T08:16:38.898Z,47.84
2023-04-21T08:19:05.902Z,48.68
2023-04-21T08:21:33.407Z,48.89
2023-04-21T08:24:00.286Z,48.39
2023-04-21T08:26:27.417Z,47.79
2023-04-21T08:28:54.190Z,47.69
2023-04-21T08:31:20.806Z,47.03
2023-04-21T08:34:00.613Z,47.30
2023-04-21T08:36:30.198Z,47.12
2023-04-21T08:38:57.328Z,47.75
2023-04-21T08:41:24.845Z,47.53
2023-04-21T08:43:51.375Z,47.72
2023-04-21T08:46:19.404Z,46.22
2023-04-21T08:48:47.260Z,46.39
2023-04-21T08:51:21.629Z,45.11
2023-04-21T08:53:48.077Z,45.46
2023-04-21T08:56:14.946Z,46.61
2023-04-21T08:58:41.737Z,46.24
2023-04-21T09:01:08.297Z,46.24
2023-04-21T09:03:34.881Z,46.31
2023-04-21T09:06:06.363Z,45.76
2023-04-21T09:08:34.599Z,45.24
2023-04-21T09:11:01.613Z,45.76
2023-04-21T09:13:36.477Z,45.26
2023-04-21T09:16:08.181Z,45.37
2023-04-21T09:18:37.361Z,44.93
2023-04-21T09:21:12.586Z,44.69
2023-04-21T09:23:52.478Z,45.01
2023-04-21T09:26:22.557Z,44.13
2023-04-21T09:28:50.724Z,43.45
2023-04-21T09:31:21.794Z,43.69
2023-04-21T09:36:30.541Z,44.85
2023-04-21T09:39:24.461Z,44.74
2023-04-21T09:41:46.025Z,45.35
2023-04-21T09:44:12.499Z,44.27
2023-04-21T09:46:43.577Z,43.80
2023-04-21T09:49:12.285Z,43.17
2023-04-21T09:52:05.843Z,42.08
2023-04-21T09:54:30.624Z,42.68
2023-04-21T09:57:02.715Z,42.71
2023-04-21T09:59:37.721Z,43.38
2023-04-21T10:02:06.184Z,42.76
2023-04-21T10:04:34.167Z,43.19
2023-04-21T10:07:01.637Z,43.49
2023-04-21T10:09:34.972Z,43.33
2023-04-21T10:12:02.931Z,43.46
2023-04-21T10:14:29.320Z,43.07
2023-04-21T10:17:06.733Z,42.68
2023-04-21T10:19:41.598Z,41.58
2023-04-21T10:22:09.657Z,42.60
2023-04-21T10:24:41.029Z,43.11
2023-04-21T10:27:12.096Z,41.87
2023-04-21T10:29:52.476Z,43.22
2023-04-21T10:32:42.273Z,42.12
2023-04-21T10:35:17.784Z,40.98
2023-04-21T10:37:48.929Z,41.40
2023-04-21T10:40:43.228Z,41.13
2023-04-21T10:43:43.380Z,41.47
2023-04-21T10:46:39.255Z,39.91
2023-04-21T10:49:10.215Z,40.46
2023-04-21T10:52:08.058Z,40.93
2023-04-21T10:54:49.851Z,40.67
2023-04-21T10:57:18.527Z,40.68
2023-04-21T10:59:46.139Z,41.17
2023-04-21T11:02:15.492Z,40.31
2023-04-21T11:04:48.366Z,39.54
2023-04-21T11:07:17.502Z,39.87
2023-04-21T11:09:45.654Z,40.31
2023-04-21T11:12:14.298Z,40.34
2023-04-21T11:14:44.390Z,38.54
2023-04-21T11:17:12.832Z,38.87
2023-04-21T11:19:39.809Z,39.94
2023-04-21T11:22:06.338Z,40.05
2023-04-21T11:24:33.070Z,40.47
2023-04-21T11:27:03.185Z,39.90
2023-04-21T11:29:29.777Z,38.64
2023-04-21T11:31:56.245Z,37.85
2023-04-21T11:34:24.980Z,37.79
2023-04-21T11:36:52.562Z,37.70
2023-04-21T11:39:21.811Z,38.65
2023-04-21T11:41:50.276Z,38.37
2023-04-21T11:44:43.118Z,36.75
2023-04-21T11:47:20.214Z,37.99
2023-04-21T11:49:56.051Z,38.54
2023-04-21T11:52:26.132Z,37.64
2023-04-21T11:55:06.213Z,37.68
2023-04-21T11:57:33.832Z,36.54
2023-04-21T12:00:01.592Z,37.50
2023-04-21T12:02:32.339Z,37.63
2023-04-21T12:05:02.076Z,36.90
2023-04-21T12:07:33.145Z,39.53
2023-04-21T12:10:00.390Z,38.71
2023-04-21T12:12:27.256Z,38.33
2023-04-21T12:14:53.918Z,39.06
2023-04-21T12:17:20.649Z,38.13
2023-04-21T12:19:47.400Z,37.52
2023-04-21T12:22:15.803Z,38.82
2023-04-21T12:24:43.039Z,38.73
2023-04-21T12:27:10.203Z,38.84
2023-04-21T12:29:37.832Z,39.69
2023-04-21T12:32:05.637Z,40.36
2023-04-21T12:34:32.351Z,39.40
2023-04-21T12:39:25.316Z,39.43
2023-04-21T12:41:51.817Z,40.23
2023-04-21T12:44:18.270Z,40.94
2023-04-21T12:46:44.858Z,40.46
2023-04-21T12:49:11.632Z,40.72
2023-04-21T12:51:38.104Z,41.01
2023-04-21T12:54:04.582Z,40.26
2023-04-21T12:56:31.398Z,39.68
2023-04-21T12:58:58.311Z,39.97
2023-04-21T13:01:24.942Z,38.94
2023-04-21T13:03:51.571Z,39.37
2023-04-21T13:06:18.195Z,39.41
2023-04-21T13:08:44.627Z,39.60
2023-04-21T13:11:11.064Z,39.73
2023-04-21T13:13:37.673Z,39.91
2023-04-21T13:16:04.812Z,40.31
2023-04-21T13:18:31.275Z,40.62
2023-04-21T13:20:57.718Z,40.26
2023-04-21T13:23:24.173Z,39.85
2023-04-21T13:25:50.942Z,40.14
2023-04-21T13:28:17.656Z,40.76
2023-04-21T13:30:44.688Z,40.12
2023-04-21T13:33:11.767Z,40.13
2023-04-21T13:35:38.579Z,40.00
2023-04-21T13:38:05.819Z,40.57
2023-04-21T13:40:32.289Z,39.55
2023-04-21T13:42:59.397Z,39.13
2023-04-21T13:45:26.483Z,40.23
2023-04-21T13:47:52.984Z,39.37
2023-04-21T13:50:19.664Z,39.02
2023-04-21T13:52:46.116Z,38.61
2023-04-21T13:55:12.781Z,38.39
2023-04-21T13:57:39.256Z,38.73
2023-04-21T14:00:06.544Z,38.63
2023-04-21T14:02:33.311Z,38.63
2023-04-21T14:05:00.064Z,38.25
2023-04-21T14:07:26.927Z,38.13
2023-04-21T14:09:53.353Z,38.76
2023-04-21T14:12:19.769Z,38.71
2023-04-21T14:14:46.277Z,38.55
2023-04-21T14:17:12.951Z,38.70
2023-04-21T14:19:39.427Z,38.61
2023-04-21T14:22:05.871Z,39.19
2023-04-21T14:24:32.341Z,39.77
2023-04-21T14:26:59.222Z,39.20
2023-04-21T14:29:25.862Z,39.48
2023-04-21T14:31:53.817Z,38.40
2023-04-21T14:34:20.273Z,38.99
2023-04-21T14:36:49.912Z,38.39
2023-04-21T14:39:16.735Z,38.13
2023-04-21T14:41:43.195Z,38.81
2023-04-21T14:44:09.652Z,39.01
2023-04-21T14:46:36.580Z,38.42
2023-04-21T14:49:03.981Z,38.11
2023-04-21T14:51:31.924Z,38.02
2023-04-21T14:53:58.481Z,38.49
2023-04-21T14:56:24.941Z,39.01
2023-04-21T14:58:51.454Z,38.75
2023-04-21T15:01:18.041Z,38.90
2023-04-21T15:03:44.667Z,39.00
2023-04-21T15:06:11.356Z,38.77
2023-04-21T15:08:38.022Z,39.54
2023-04-21T15:11:05.287Z,39.00
2023-04-21T15:13:32.877Z,39.17
2023-04-21T15:15:59.333Z,39.25
2023-04-21T15:18:25.767Z,38.81
2023-04-21T15:20:52.167Z,39.36
2023-04-21T15:23:18.565Z,39.17
2023-04-21T15:25:45.022Z,39.64
2023-04-21T15:28:12.916Z,38.81
2023-04-21T15:30:39.355Z,39.04
2023-04-21T15:33:06.025Z,39.10
2023-04-21T15:35:32.510Z,39.57
2023-04-21T15:37:59.058Z,38.46
2023-04-21T15:40:25.632Z,38.75
2023-04-21T15:42:52.092Z,39.16
2023-04-21T15:45:18.641Z,38.72
2023-04-21T15:47:45.398Z,39.29
2023-04-21T15:50:11.882Z,39.16
2023-04-21T15:52:42.531Z,39.08
2023-04-21T15:55:11.718Z,38.50
2023-04-21T15:57:38.405Z,38.76
2023-04-21T16:00:05.675Z,38.92
2023-04-21T16:02:32.341Z,38.66
2023-04-21T16:04:59.018Z,38.54
2023-04-21T16:07:26.664Z,39.32
2023-04-21T16:09:53.115Z,39.44
2023-04-21T16:12:19.635Z,39.65
2023-04-21T16:14:56.090Z,40.01
2023-04-21T16:17:28.041Z,39.47
2023-04-21T16:19:54.627Z,39.63
2023-04-21T16:22:21.066Z,39.32
2023-04-21T16:24:48.430Z,39.41
2023-04-21T16:27:15.469Z,39.55
2023-04-21T16:29:41.935Z,39.35
2023-04-21T16:32:08.475Z,39.87
2023-04-21T16:34:35.163Z,39.35
2023-04-21T16:37:01.680Z,39.89
2023-04-21T16:39:28.103Z,39.24
2023-04-21T16:41:54.526Z,39.63
2023-04-21T16:44:21.013Z,39.95
2023-04-21T16:46:47.494Z,39.62
2023-04-21T16:49:14.022Z,39.91
2023-04-21T16:51:44.552Z,39.87
2023-04-21T16:54:13.964Z,39.71
2023-04-21T16:56:40.355Z,39.57
2023-04-21T16:59:06.837Z,40.34
2023-04-21T17:01:33.301Z,39.80
2023-04-21T17:04:00.008Z,39.92
2023-04-21T17:06:26.601Z,39.61
2023-04-21T17:08:59.449Z,40.06
2023-04-21T17:11:27.433Z,40.37
2023-04-21T17:13:53.881Z,40.43
2023-04-21T17:16:20.387Z,40.12
2023-04-21T17:18:46.895Z,40.20
2023-04-21T17:21:13.291Z,40.10
2023-04-21T17:23:39.690Z,40.19
2023-04-21T17:26:06.443Z,40.41
2023-04-21T17:28:33.493Z,39.88
2023-04-21T17:31:13.819Z,39.96
2023-04-21T17:33:41.497Z,40.46
2023-04-21T17:36:08.154Z,40.68
2023-04-21T17:38:34.683Z,40.54
2023-04-21T17:41:02.025Z,40.51
2023-04-21T17:43:28.615Z,40.82
2023-04-21T17:45:55.136Z,41.08
2023-04-21T17:48:21.605Z,41.28
2023-04-21T17:50:48.034Z,40.81
2023-04-21T17:53:14.468Z,40.74
2023-04-21T17:55:40.933Z,41.18
2023-04-21T17:58:10.055Z,41.28
2023-04-21T18:00:38.122Z,41.20
2023-04-21T18:03:04.878Z,41.49
2023-04-21T18:05:31.522Z,41.61
2023-04-21T18:07:58.233Z,41.44
2023-04-21T18:10:25.855Z,41.39
2023-04-21T18:12:53.352Z,41.35
2023-04-21T18:15:19.938Z,41.03
2023-04-21T18:17:46.417Z,41.08
2023-04-21T18:20:14.836Z,41.30
2023-04-21T18:22:44.539Z,41.11
2023-04-21T18:25:14.323Z,41.56
2023-04-21T18:27:40.900Z,41.47
2023-04-21T18:30:11.494Z,41.48
2023-04-21T18:32:38.622Z,41.54
2023-04-21T18:35:06.368Z,41.89
2023-04-21T18:37:33.069Z,41.83
2023-04-21T18:39:59.888Z,41.78
2023-04-21T18:42:26.812Z,42.00
2023-04-21T18:44:58.108Z,41.78
2023-04-21T18:47:25.213Z,41.87
2023-04-21T18:49:52.555Z,42.10
2023-04-21T18:52:18.993Z,41.96
2023-04-21T18:54:45.407Z,41.90
2023-04-21T18:57:11.907Z,42.07
2023-04-21T18:59:38.329Z,41.63
2023-04-21T19:02:06.032Z,41.52
2023-04-21T19:04:32.630Z,42.19
2023-04-21T19:06:59.046Z,42.13
2023-04-21T19:09:27.163Z,42.51
2023-04-21T19:11:53.707Z,42.50
2023-04-21T19:14:20.111Z,42.66
2023-04-21T19:16:48.632Z,43.05
2023-04-21T19:19:15.354Z,42.88
2023-04-21T19:21:41.747Z,42.52
2023-04-21T19:24:08.153Z,43.10
2023-04-21T19:26:34.554Z,42.67
2023-04-21T19:29:00.958Z,42.67
2023-04-21T19:31:27.436Z,42.84
2023-04-21T19:33:53.841Z,42.85
2023-04-21T19:36:20.486Z,42.89
2023-04-21T19:38:47.210Z,43.14
2023-04-21T19:41:13.620Z,42.50
2023-04-21T19:43:40.058Z,42.72
2023-04-21T19:46:06.900Z,42.66
2023-04-21T19:48:33.544Z,42.78
2023-04-21T19:50:59.956Z,43.39
2023-04-21T19:53:26.384Z,42.99
2023-04-21T19:55:53.003Z,42.99
2023-04-21T19:58:32.605Z,42.94
2023-04-21T20:01:06.017Z,43.23
2023-04-21T20:03:33.246Z,43.27
2023-04-21T20:06:00.105Z,43.53
2023-04-21T20:08:26.506Z,43.70
2023-04-21T20:10:52.952Z,43.62
2023-04-21T20:13:19.375Z,43.63
2023-04-21T20:15:45.874Z,43.64
2023-04-21T20:18:12.929Z,43.68
2023-04-21T20:20:40.477Z,44.11
2023-04-21T20:23:06.907Z,44.46
2023-04-21T20:25:33.376Z,44.16
2023-04-21T20:27:59.780Z,44.33
2023-04-21T20:30:26.177Z,44.06
2023-04-21T20:32:52.810Z,44.11
2023-04-21T20:35:19.285Z,44.41
2023-04-21T20:37:45.752Z,44.37
2023-04-21T20:40:13.012Z,44.56
2023-04-21T20:42:39.425Z,44.35
2023-04-21T20:45:06.691Z,44.84
2023-04-21T20:47:33.975Z,44.97
2023-04-21T20:50:00.551Z,44.76
2023-04-21T20:52:27.085Z,44.71
2023-04-21T20:54:53.548Z,44.91
2023-04-21T20:57:20.000Z,45.57
2023-04-21T20:59:46.465Z,45.41
2023-04-21T21:02:13.052Z,45.80
2023-04-21T21:04:39.683Z,45.79
2023-04-21T21:07:06.404Z,46.16
2023-04-21T21:09:32.874Z,46.08
2023-04-21T21:11:59.486Z,46.29
2023-04-21T21:14:25.912Z,46.41
2023-04-21T21:16:54.461Z,46.57
2023-04-21T21:19:21.205Z,46.84
2023-04-21T21:21:47.744Z,47.10
2023-04-21T21:24:14.152Z,47.20
2023-04-21T21:26:42.506Z,47.44
2023-04-21T21:29:09.358Z,47.57
2023-04-21T21:31:35.796Z,47.44
2023-04-21T21:34:03.873Z,47.95
2023-04-21T21:36:31.768Z,47.97
2023-04-21T21:38:58.189Z,48.08
2023-04-21T21:41:24.616Z,47.99
2023-04-21T21:43:51.032Z,48.01
2023-04-21T21:46:18.637Z,48.11
2023-04-21T21:48:45.468Z,48.20
2023-04-21T21:51:12.018Z,48.14
2023-04-21T21:53:38.429Z,48.20
2023-04-21T21:56:05.376Z,48.39
2023-04-21T21:58:32.149Z,48.42
2023-04-21T22:00:59.283Z,48.44
2023-04-21T22:03:26.164Z,48.37
2023-04-21T22:05:52.730Z,48.83
2023-04-21T22:08:19.128Z,48.55
2023-04-21T22:10:45.717Z,48.90
2023-04-21T22:13:12.182Z,48.87
2023-04-21T22:15:38.889Z,48.89
2023-04-21T22:18:05.557Z,48.98
2023-04-21T22:20:32.132Z,49.04
2023-04-21T22:22:59.179Z,49.45
2023-04-21T22:25:26.888Z,49.32
2023-04-21T22:27:54.969Z,49.53
2023-04-21T22:30:21.479Z,49.79
2023-04-21T22:32:48.180Z,49.64
2023-04-21T22:35:14.653Z,49.99
2023-04-21T22:37:41.832Z,50.21
2023-04-21T22:40:09.168Z,49.99
2023-04-21T22:42:35.612Z,49.83
2023-04-21T22:45:03.979Z,50.07
2023-04-21T22:47:31.007Z,50.18
2023-04-21T22:49:57.440Z,50.37
2023-04-21T22:52:26.529Z,50.48
2023-04-21T22:54:53.532Z,50.50
2023-04-21T22:57:21.462Z,50.22
2023-04-21T22:59:47.991Z,50.53
2023-04-21T23:02:14.449Z,50.64
2023-04-21T23:04:40.921Z,50.54
2023-04-21T23:07:07.700Z,50.77
2023-04-21T23:09:34.155Z,50.76
2023-04-21T23:12:01.412Z,50.55
2023-04-21T23:14:27.867Z,50.94
2023-04-21T23:16:54.460Z,50.81
2023-04-21T23:19:20.960Z,50.92
2023-04-21T23:21:47.498Z,50.60
2023-04-21T23:24:14.685Z,50.77
2023-04-21T23:26:41.143Z,50.53
2023-04-21T23:29:07.572Z,50.80
2023-04-21T23:31:34.151Z,50.85
2023-04-21T23:34:00.741Z,50.90
2023-04-21T23:36:27.267Z,51.03
2023-04-21T23:38:54.116Z,50.73
2023-04-21T23:41:21.270Z,50.73
2023-04-21T23:43:47.746Z,51.10
2023-04-21T23:46:15.096Z,50.78
2023-04-21T23:48:41.565Z,51.02
2023-04-21T23:51:08.083Z,50.98
2023-04-21T23:53:34.600Z,51.37
2023-04-21T23:56:01.007Z,51.26
2023-04-21T23:58:28.077Z,51.71
